sensor_id;sensor_type;location;lat;lon;timestamp;P1;durP1;ratioP1;P2;durP2;ratioP2
56541;SDS011;42438;53.174;6.730;2024-03-06T00:02:15;16.10;;;7.15;;
56541;SDS011;42438;53.174;6.730;2024-03-06T00:04:46;12.38;;;6.78;;
56541;SDS011;42438;53.174;6.730;2024-03-06T00:07:17;13.60;;;7.10;;
56541;SDS011;42438;53.174;6.730;2024-03-06T00:09:48;16.70;;;7.03;;
56541;SDS011;42438;53.174;6.730;2024-03-06T00:12:18;13.77;;;7.13;;
56541;SDS011;42438;53.174;6.730;2024-03-06T00:14:49;12.43;;;7.60;;
56541;SDS011;42438;53.174;6.730;2024-03-06T00:17:20;14.32;;;7.75;;
56541;SDS011;42438;53.174;6.730;2024-03-06T00:19:50;15.75;;;7.38;;
56541;SDS011;42438;53.174;6.730;2024-03-06T00:22:21;13.20;;;6.90;;
56541;SDS011;42438;53.174;6.730;2024-03-06T00:24:52;14.73;;;7.70;;
56541;SDS011;42438;53.174;6.730;2024-03-06T00:27:22;15.13;;;7.28;;
56541;SDS011;42438;53.174;6.730;2024-03-06T00:29:53;13.77;;;6.63;;
56541;SDS011;42438;53.174;6.730;2024-03-06T00:32:23;14.98;;;7.60;;
56541;SDS011;42438;53.174;6.730;2024-03-06T00:34:54;13.65;;;7.38;;
56541;SDS011;42438;53.174;6.730;2024-03-06T00:37:25;12.40;;;6.88;;
56541;SDS011;42438;53.174;6.730;2024-03-06T00:39:55;14.70;;;6.78;;
56541;SDS011;42438;53.174;6.730;2024-03-06T00:42:26;14.82;;;7.53;;
56541;SDS011;42438;53.174;6.730;2024-03-06T00:44:56;12.70;;;6.40;;
56541;SDS011;42438;53.174;6.730;2024-03-06T00:47:27;13.88;;;6.88;;
56541;SDS011;42438;53.174;6.730;2024-03-06T00:49:58;12.52;;;6.97;;
56541;SDS011;42438;53.174;6.730;2024-03-06T00:52:28;14.40;;;7.68;;
56541;SDS011;42438;53.174;6.730;2024-03-06T00:54:59;14.32;;;7.57;;
56541;SDS011;42438;53.174;6.730;2024-03-06T00:57:30;14.25;;;7.30;;
56541;SDS011;42438;53.174;6.730;2024-03-06T01:00:01;14.80;;;7.38;;
56541;SDS011;42438;53.174;6.730;2024-03-06T01:02:40;15.15;;;7.25;;
56541;SDS011;42438;53.174;6.730;2024-03-06T01:05:11;13.02;;;6.97;;
56541;SDS011;42438;53.174;6.730;2024-03-06T01:07:41;16.85;;;7.13;;
56541;SDS011;42438;53.174;6.730;2024-03-06T01:10:12;11.70;;;7.28;;
56541;SDS011;42438;53.174;6.730;2024-03-06T01:12:43;12.57;;;7.07;;
56541;SDS011;42438;53.174;6.730;2024-03-06T01:15:15;14.93;;;6.85;;
56541;SDS011;42438;53.174;6.730;2024-03-06T01:17:46;12.52;;;7.30;;
56541;SDS011;42438;53.174;6.730;2024-03-06T01:20:17;12.48;;;6.80;;
56541;SDS011;42438;53.174;6.730;2024-03-06T01:22:48;12.20;;;7.00;;
56541;SDS011;42438;53.174;6.730;2024-03-06T01:25:19;15.00;;;7.38;;
56541;SDS011;42438;53.174;6.730;2024-03-06T01:27:49;15.15;;;7.28;;
56541;SDS011;42438;53.174;6.730;2024-03-06T01:30:20;12.27;;;7.05;;
56541;SDS011;42438;53.174;6.730;2024-03-06T01:32:51;14.80;;;6.90;;
56541;SDS011;42438;53.174;6.730;2024-03-06T01:35:21;17.20;;;7.32;;
56541;SDS011;42438;53.174;6.730;2024-03-06T01:37:53;12.07;;;6.78;;
56541;SDS011;42438;53.174;6.730;2024-03-06T01:40:24;12.45;;;6.90;;
56541;SDS011;42438;53.174;6.730;2024-03-06T01:42:55;15.52;;;7.60;;
56541;SDS011;42438;53.174;6.730;2024-03-06T01:45:26;15.43;;;7.22;;
56541;SDS011;42438;53.174;6.730;2024-03-06T01:47:57;13.82;;;7.22;;
56541;SDS011;42438;53.174;6.730;2024-03-06T01:50:27;13.43;;;6.95;;
56541;SDS011;42438;53.174;6.730;2024-03-06T01:52:58;12.95;;;7.15;;
56541;SDS011;42438;53.174;6.730;2024-03-06T01:55:29;16.27;;;7.90;;
56541;SDS011;42438;53.174;6.730;2024-03-06T01:57:59;13.70;;;6.78;;
56541;SDS011;42438;53.174;6.730;2024-03-06T02:00:31;15.68;;;7.38;;
56541;SDS011;42438;53.174;6.730;2024-03-06T02:03:03;15.43;;;6.85;;
56541;SDS011;42438;53.174;6.730;2024-03-06T02:05:34;13.77;;;7.10;;
56541;SDS011;42438;53.174;6.730;2024-03-06T02:08:05;13.18;;;7.32;;
56541;SDS011;42438;53.174;6.730;2024-03-06T02:10:36;11.35;;;6.45;;
56541;SDS011;42438;53.174;6.730;2024-03-06T02:13:07;15.00;;;7.50;;
56541;SDS011;42438;53.174;6.730;2024-03-06T02:15:39;13.77;;;7.60;;
56541;SDS011;42438;53.174;6.730;2024-03-06T02:18:10;12.48;;;7.05;;
56541;SDS011;42438;53.174;6.730;2024-03-06T02:20:41;12.45;;;7.50;;
56541;SDS011;42438;53.174;6.730;2024-03-06T02:23:11;14.15;;;7.82;;
56541;SDS011;42438;53.174;6.730;2024-03-06T02:25:42;15.32;;;7.22;;
56541;SDS011;42438;53.174;6.730;2024-03-06T02:28:12;15.35;;;7.88;;
56541;SDS011;42438;53.174;6.730;2024-03-06T02:30:43;13.00;;;7.82;;
56541;SDS011;42438;53.174;6.730;2024-03-06T02:33:14;16.17;;;8.32;;
56541;SDS011;42438;53.174;6.730;2024-03-06T02:35:44;15.68;;;6.93;;
56541;SDS011;42438;53.174;6.730;2024-03-06T02:38:16;15.77;;;8.48;;
56541;SDS011;42438;53.174;6.730;2024-03-06T02:40:46;15.75;;;7.63;;
56541;SDS011;42438;53.174;6.730;2024-03-06T02:43:18;13.63;;;7.32;;
56541;SDS011;42438;53.174;6.730;2024-03-06T02:45:48;14.90;;;7.70;;
56541;SDS011;42438;53.174;6.730;2024-03-06T02:48:19;15.35;;;8.05;;
56541;SDS011;42438;53.174;6.730;2024-03-06T02:50:49;16.13;;;7.63;;
56541;SDS011;42438;53.174;6.730;2024-03-06T02:53:20;14.05;;;7.65;;
56541;SDS011;42438;53.174;6.730;2024-03-06T02:55:51;14.50;;;7.38;;
56541;SDS011;42438;53.174;6.730;2024-03-06T02:58:22;16.67;;;8.20;;
56541;SDS011;42438;53.174;6.730;2024-03-06T03:00:52;17.45;;;7.57;;
56541;SDS011;42438;53.174;6.730;2024-03-06T03:03:23;16.75;;;8.38;;
56541;SDS011;42438;53.174;6.730;2024-03-06T03:05:55;15.38;;;8.40;;
56541;SDS011;42438;53.174;6.730;2024-03-06T03:08:25;14.13;;;7.90;;
56541;SDS011;42438;53.174;6.730;2024-03-06T03:10:56;15.75;;;7.70;;
56541;SDS011;42438;53.174;6.730;2024-03-06T03:13:27;16.90;;;7.93;;
56541;SDS011;42438;53.174;6.730;2024-03-06T03:15:57;17.02;;;8.02;;
56541;SDS011;42438;53.174;6.730;2024-03-06T03:18:28;14.48;;;7.75;;
56541;SDS011;42438;53.174;6.730;2024-03-06T03:20:59;15.60;;;7.80;;
56541;SDS011;42438;53.174;6.730;2024-03-06T03:23:29;15.75;;;7.80;;
56541;SDS011;42438;53.174;6.730;2024-03-06T03:26:00;14.55;;;7.40;;
56541;SDS011;42438;53.174;6.730;2024-03-06T03:28:31;12.82;;;7.88;;
56541;SDS011;42438;53.174;6.730;2024-03-06T03:31:02;15.43;;;7.63;;
56541;SDS011;42438;53.174;6.730;2024-03-06T03:33:33;16.10;;;7.95;;
56541;SDS011;42438;53.174;6.730;2024-03-06T03:36:04;16.52;;;8.93;;
56541;SDS011;42438;53.174;6.730;2024-03-06T03:38:37;15.57;;;8.05;;
56541;SDS011;42438;53.174;6.730;2024-03-06T03:41:11;19.42;;;8.52;;
56541;SDS011;42438;53.174;6.730;2024-03-06T03:43:42;15.52;;;8.32;;
56541;SDS011;42438;53.174;6.730;2024-03-06T03:46:13;15.70;;;8.48;;
56541;SDS011;42438;53.174;6.730;2024-03-06T03:48:43;17.25;;;8.52;;
56541;SDS011;42438;53.174;6.730;2024-03-06T03:51:15;15.07;;;8.10;;
56541;SDS011;42438;53.174;6.730;2024-03-06T03:53:46;18.50;;;8.85;;
56541;SDS011;42438;53.174;6.730;2024-03-06T03:56:20;18.17;;;8.52;;
56541;SDS011;42438;53.174;6.730;2024-03-06T03:58:51;14.23;;;8.43;;
56541;SDS011;42438;53.174;6.730;2024-03-06T04:01:22;17.50;;;8.35;;
56541;SDS011;42438;53.174;6.730;2024-03-06T04:03:53;16.75;;;8.45;;
56541;SDS011;42438;53.174;6.730;2024-03-06T04:06:24;15.75;;;8.73;;
56541;SDS011;42438;53.174;6.730;2024-03-06T04:08:54;20.55;;;8.57;;
56541;SDS011;42438;53.174;6.730;2024-03-06T04:11:25;17.17;;;8.65;;
56541;SDS011;42438;53.174;6.730;2024-03-06T04:13:56;17.55;;;8.40;;
56541;SDS011;42438;53.174;6.730;2024-03-06T04:16:26;16.80;;;8.23;;
56541;SDS011;42438;53.174;6.730;2024-03-06T04:18:57;18.40;;;8.82;;
56541;SDS011;42438;53.174;6.730;2024-03-06T04:21:27;15.52;;;7.70;;
56541;SDS011;42438;53.174;6.730;2024-03-06T04:23:58;18.80;;;8.55;;
56541;SDS011;42438;53.174;6.730;2024-03-06T04:26:29;17.58;;;8.80;;
56541;SDS011;42438;53.174;6.730;2024-03-06T04:28:59;16.60;;;8.25;;
56541;SDS011;42438;53.174;6.730;2024-03-06T04:31:30;19.20;;;8.98;;
56541;SDS011;42438;53.174;6.730;2024-03-06T04:34:01;17.88;;;8.60;;
56541;SDS011;42438;53.174;6.730;2024-03-06T04:36:32;16.15;;;8.10;;
56541;SDS011;42438;53.174;6.730;2024-03-06T04:39:02;17.42;;;9.40;;
56541;SDS011;42438;53.174;6.730;2024-03-06T04:41:37;15.77;;;8.02;;
56541;SDS011;42438;53.174;6.730;2024-03-06T04:44:08;16.92;;;8.57;;
56541;SDS011;42438;53.174;6.730;2024-03-06T04:46:38;15.75;;;8.80;;
56541;SDS011;42438;53.174;6.730;2024-03-06T04:49:09;16.33;;;8.55;;
56541;SDS011;42438;53.174;6.730;2024-03-06T04:51:39;17.70;;;9.05;;
56541;SDS011;42438;53.174;6.730;2024-03-06T04:54:10;17.30;;;9.27;;
56541;SDS011;42438;53.174;6.730;2024-03-06T04:56:41;17.10;;;8.95;;
56541;SDS011;42438;53.174;6.730;2024-03-06T04:59:11;16.63;;;8.88;;
56541;SDS011;42438;53.174;6.730;2024-03-06T05:01:43;16.75;;;8.05;;
56541;SDS011;42438;53.174;6.730;2024-03-06T05:04:14;17.27;;;8.90;;
56541;SDS011;42438;53.174;6.730;2024-03-06T05:06:45;17.77;;;9.50;;
56541;SDS011;42438;53.174;6.730;2024-03-06T05:09:17;17.02;;;9.57;;
56541;SDS011;42438;53.174;6.730;2024-03-06T05:11:47;15.75;;;9.05;;
56541;SDS011;42438;53.174;6.730;2024-03-06T05:14:20;20.27;;;9.70;;
56541;SDS011;42438;53.174;6.730;2024-03-06T05:16:51;15.05;;;8.05;;
56541;SDS011;42438;53.174;6.730;2024-03-06T05:19:23;18.17;;;9.50;;
56541;SDS011;42438;53.174;6.730;2024-03-06T05:22:00;16.52;;;9.55;;
56541;SDS011;42438;53.174;6.730;2024-03-06T05:24:31;16.23;;;8.88;;
56541;SDS011;42438;53.174;6.730;2024-03-06T05:27:01;16.77;;;9.00;;
56541;SDS011;42438;53.174;6.730;2024-03-06T05:29:32;17.52;;;8.85;;
56541;SDS011;42438;53.174;6.730;2024-03-06T05:32:03;16.45;;;9.13;;
56541;SDS011;42438;53.174;6.730;2024-03-06T05:34:34;19.08;;;9.27;;
56541;SDS011;42438;53.174;6.730;2024-03-06T05:37:05;17.30;;;8.75;;
56541;SDS011;42438;53.174;6.730;2024-03-06T05:39:36;16.52;;;9.40;;
56541;SDS011;42438;53.174;6.730;2024-03-06T05:42:07;15.90;;;8.45;;
56541;SDS011;42438;53.174;6.730;2024-03-06T05:44:38;15.30;;;9.43;;
56541;SDS011;42438;53.174;6.730;2024-03-06T05:47:08;16.15;;;9.50;;
56541;SDS011;42438;53.174;6.730;2024-03-06T05:49:39;17.88;;;9.60;;
56541;SDS011;42438;53.174;6.730;2024-03-06T05:52:10;20.33;;;9.98;;
56541;SDS011;42438;53.174;6.730;2024-03-06T05:54:40;18.23;;;9.68;;
56541;SDS011;42438;53.174;6.730;2024-03-06T05:57:11;20.50;;;9.50;;
56541;SDS011;42438;53.174;6.730;2024-03-06T05:59:42;18.70;;;9.80;;
56541;SDS011;42438;53.174;6.730;2024-03-06T06:02:12;16.52;;;9.13;;
56541;SDS011;42438;53.174;6.730;2024-03-06T06:04:43;19.13;;;10.57;;
56541;SDS011;42438;53.174;6.730;2024-03-06T06:07:14;17.88;;;9.77;;
56541;SDS011;42438;53.174;6.730;2024-03-06T06:09:45;16.50;;;9.10;;
56541;SDS011;42438;53.174;6.730;2024-03-06T06:12:16;19.63;;;10.77;;
56541;SDS011;42438;53.174;6.730;2024-03-06T06:14:47;19.50;;;10.05;;
56541;SDS011;42438;53.174;6.730;2024-03-06T06:17:17;16.60;;;9.13;;
56541;SDS011;42438;53.174;6.730;2024-03-06T06:19:48;19.75;;;9.80;;
56541;SDS011;42438;53.174;6.730;2024-03-06T06:22:19;17.35;;;9.00;;
56541;SDS011;42438;53.174;6.730;2024-03-06T06:24:50;18.63;;;10.00;;
56541;SDS011;42438;53.174;6.730;2024-03-06T06:27:21;15.85;;;8.90;;
56541;SDS011;42438;53.174;6.730;2024-03-06T06:29:52;18.08;;;9.63;;
56541;SDS011;42438;53.174;6.730;2024-03-06T06:32:25;16.58;;;9.90;;
56541;SDS011;42438;53.174;6.730;2024-03-06T06:34:55;17.77;;;9.63;;
56541;SDS011;42438;53.174;6.730;2024-03-06T06:37:26;22.80;;;10.68;;
56541;SDS011;42438;53.174;6.730;2024-03-06T06:39:57;18.98;;;8.93;;
56541;SDS011;42438;53.174;6.730;2024-03-06T06:42:29;17.83;;;9.13;;
56541;SDS011;42438;53.174;6.730;2024-03-06T06:45:00;17.45;;;9.05;;
56541;SDS011;42438;53.174;6.730;2024-03-06T06:47:30;21.45;;;9.93;;
56541;SDS011;42438;53.174;6.730;2024-03-06T06:50:01;18.17;;;9.90;;
56541;SDS011;42438;53.174;6.730;2024-03-06T06:52:35;17.83;;;9.65;;
56541;SDS011;42438;53.174;6.730;2024-03-06T06:55:06;19.65;;;10.40;;
56541;SDS011;42438;53.174;6.730;2024-03-06T06:57:39;19.13;;;10.25;;
56541;SDS011;42438;53.174;6.730;2024-03-06T07:00:10;19.13;;;10.32;;
56541;SDS011;42438;53.174;6.730;2024-03-06T07:02:41;23.75;;;11.15;;
56541;SDS011;42438;53.174;6.730;2024-03-06T07:05:12;18.25;;;10.07;;
56541;SDS011;42438;53.174;6.730;2024-03-06T07:07:43;17.35;;;9.65;;
56541;SDS011;42438;53.174;6.730;2024-03-06T07:10:13;16.98;;;9.85;;
56541;SDS011;42438;53.174;6.730;2024-03-06T07:12:44;19.95;;;9.60;;
56541;SDS011;42438;53.174;6.730;2024-03-06T07:15:15;21.17;;;11.23;;
56541;SDS011;42438;53.174;6.730;2024-03-06T07:17:45;20.60;;;10.48;;
56541;SDS011;42438;53.174;6.730;2024-03-06T07:20:16;21.85;;;9.93;;
56541;SDS011;42438;53.174;6.730;2024-03-06T07:22:47;20.08;;;9.90;;
56541;SDS011;42438;53.174;6.730;2024-03-06T07:25:17;19.20;;;10.05;;
56541;SDS011;42438;53.174;6.730;2024-03-06T07:27:48;22.98;;;10.43;;
56541;SDS011;42438;53.174;6.730;2024-03-06T07:30:19;21.10;;;10.63;;
56541;SDS011;42438;53.174;6.730;2024-03-06T07:32:50;18.25;;;9.15;;
56541;SDS011;42438;53.174;6.730;2024-03-06T07:35:20;20.00;;;10.38;;
56541;SDS011;42438;53.174;6.730;2024-03-06T07:37:51;21.92;;;10.00;;
56541;SDS011;42438;53.174;6.730;2024-03-06T07:40:22;19.63;;;11.02;;
56541;SDS011;42438;53.174;6.730;2024-03-06T07:42:52;19.45;;;10.43;;
56541;SDS011;42438;53.174;6.730;2024-03-06T07:45:23;21.42;;;10.30;;
56541;SDS011;42438;53.174;6.730;2024-03-06T07:47:54;17.75;;;9.57;;
56541;SDS011;42438;53.174;6.730;2024-03-06T07:50:24;18.85;;;11.32;;
56541;SDS011;42438;53.174;6.730;2024-03-06T07:52:55;21.75;;;10.43;;
56541;SDS011;42438;53.174;6.730;2024-03-06T07:55:26;19.60;;;11.02;;
56541;SDS011;42438;53.174;6.730;2024-03-06T07:57:56;20.77;;;10.80;;
56541;SDS011;42438;53.174;6.730;2024-03-06T08:00:27;24.10;;;11.57;;
56541;SDS011;42438;53.174;6.730;2024-03-06T08:02:57;22.00;;;11.15;;
56541;SDS011;42438;53.174;6.730;2024-03-06T08:05:29;20.05;;;10.40;;
56541;SDS011;42438;53.174;6.730;2024-03-06T08:08:00;19.38;;;10.23;;
56541;SDS011;42438;53.174;6.730;2024-03-06T08:10:33;20.92;;;10.90;;
56541;SDS011;42438;53.174;6.730;2024-03-06T08:13:04;17.65;;;10.07;;
56541;SDS011;42438;53.174;6.730;2024-03-06T08:15:34;19.50;;;10.68;;
56541;SDS011;42438;53.174;6.730;2024-03-06T08:18:05;19.00;;;10.45;;
56541;SDS011;42438;53.174;6.730;2024-03-06T08:20:36;24.35;;;11.80;;
56541;SDS011;42438;53.174;6.730;2024-03-06T08:23:07;21.83;;;10.80;;
56541;SDS011;42438;53.174;6.730;2024-03-06T08:25:39;19.08;;;10.45;;
56541;SDS011;42438;53.174;6.730;2024-03-06T08:28:10;18.20;;;9.73;;
56541;SDS011;42438;53.174;6.730;2024-03-06T08:30:41;20.02;;;10.00;;
56541;SDS011;42438;53.174;6.730;2024-03-06T08:33:12;22.60;;;10.50;;
56541;SDS011;42438;53.174;6.730;2024-03-06T08:35:43;18.17;;;10.15;;
56541;SDS011;42438;53.174;6.730;2024-03-06T08:38:13;24.15;;;11.23;;
56541;SDS011;42438;53.174;6.730;2024-03-06T08:40:44;20.20;;;10.50;;
56541;SDS011;42438;53.174;6.730;2024-03-06T08:43:18;20.15;;;10.82;;
56541;SDS011;42438;53.174;6.730;2024-03-06T08:45:50;25.08;;;11.00;;
56541;SDS011;42438;53.174;6.730;2024-03-06T08:48:20;23.02;;;10.38;;
56541;SDS011;42438;53.174;6.730;2024-03-06T08:50:51;23.20;;;10.52;;
56541;SDS011;42438;53.174;6.730;2024-03-06T08:53:22;18.70;;;10.02;;
56541;SDS011;42438;53.174;6.730;2024-03-06T08:55:53;20.23;;;10.75;;
56541;SDS011;42438;53.174;6.730;2024-03-06T08:58:24;20.85;;;11.70;;
56541;SDS011;42438;53.174;6.730;2024-03-06T09:00:54;19.92;;;10.60;;
56541;SDS011;42438;53.174;6.730;2024-03-06T09:03:25;18.63;;;10.80;;
56541;SDS011;42438;53.174;6.730;2024-03-06T09:05:56;21.27;;;11.50;;
56541;SDS011;42438;53.174;6.730;2024-03-06T09:08:26;19.58;;;10.63;;
56541;SDS011;42438;53.174;6.730;2024-03-06T09:10:57;21.83;;;11.25;;
56541;SDS011;42438;53.174;6.730;2024-03-06T09:13:29;22.42;;;11.13;;
56541;SDS011;42438;53.174;6.730;2024-03-06T09:15:59;22.60;;;11.70;;
56541;SDS011;42438;53.174;6.730;2024-03-06T09:18:30;19.95;;;11.00;;
56541;SDS011;42438;53.174;6.730;2024-03-06T09:21:01;20.00;;;10.95;;
56541;SDS011;42438;53.174;6.730;2024-03-06T09:23:32;24.08;;;10.27;;
56541;SDS011;42438;53.174;6.730;2024-03-06T09:26:03;20.13;;;10.40;;
56541;SDS011;42438;53.174;6.730;2024-03-06T09:28:33;22.50;;;10.73;;
56541;SDS011;42438;53.174;6.730;2024-03-06T09:31:04;20.52;;;10.25;;
56541;SDS011;42438;53.174;6.730;2024-03-06T09:33:35;19.00;;;10.82;;
56541;SDS011;42438;53.174;6.730;2024-03-06T09:36:06;20.42;;;10.80;;
56541;SDS011;42438;53.174;6.730;2024-03-06T09:38:37;22.67;;;10.73;;
56541;SDS011;42438;53.174;6.730;2024-03-06T09:41:09;23.60;;;11.65;;
56541;SDS011;42438;53.174;6.730;2024-03-06T09:43:40;24.83;;;11.88;;
56541;SDS011;42438;53.174;6.730;2024-03-06T09:46:13;22.08;;;10.52;;
56541;SDS011;42438;53.174;6.730;2024-03-06T09:48:45;25.13;;;13.15;;
56541;SDS011;42438;53.174;6.730;2024-03-06T09:51:17;22.60;;;11.65;;
56541;SDS011;42438;53.174;6.730;2024-03-06T09:53:48;23.77;;;12.02;;
56541;SDS011;42438;53.174;6.730;2024-03-06T09:56:21;21.42;;;11.52;;
56541;SDS011;42438;53.174;6.730;2024-03-06T09:58:52;26.50;;;13.40;;
56541;SDS011;42438;53.174;6.730;2024-03-06T10:01:24;25.60;;;12.63;;
56541;SDS011;42438;53.174;6.730;2024-03-06T10:03:58;28.27;;;14.52;;
56541;SDS011;42438;53.174;6.730;2024-03-06T10:06:28;25.25;;;13.13;;
56541;SDS011;42438;53.174;6.730;2024-03-06T10:09:04;25.13;;;13.30;;
56541;SDS011;42438;53.174;6.730;2024-03-06T10:11:39;26.90;;;13.50;;
56541;SDS011;42438;53.174;6.730;2024-03-06T10:14:10;26.45;;;14.60;;
56541;SDS011;42438;53.174;6.730;2024-03-06T10:17:00;25.10;;;14.13;;
56541;SDS011;42438;53.174;6.730;2024-03-06T10:19:31;27.73;;;13.70;;
56541;SDS011;42438;53.174;6.730;2024-03-06T10:22:06;26.65;;;12.75;;
56541;SDS011;42438;53.174;6.730;2024-03-06T10:24:38;25.42;;;12.88;;
56541;SDS011;42438;53.174;6.730;2024-03-06T10:27:13;22.58;;;12.98;;
56541;SDS011;42438;53.174;6.730;2024-03-06T10:29:46;26.02;;;12.85;;
56541;SDS011;42438;53.174;6.730;2024-03-06T10:32:30;25.30;;;12.80;;
56541;SDS011;42438;53.174;6.730;2024-03-06T10:35:00;27.05;;;12.98;;
56541;SDS011;42438;53.174;6.730;2024-03-06T10:37:31;23.33;;;12.90;;
56541;SDS011;42438;53.174;6.730;2024-03-06T10:40:04;26.60;;;14.00;;
56541;SDS011;42438;53.174;6.730;2024-03-06T10:42:38;22.40;;;13.07;;
56541;SDS011;42438;53.174;6.730;2024-03-06T10:45:15;24.60;;;13.90;;
56541;SDS011;42438;53.174;6.730;2024-03-06T10:47:46;28.67;;;14.25;;
56541;SDS011;42438;53.174;6.730;2024-03-06T10:50:18;24.50;;;12.98;;
56541;SDS011;42438;53.174;6.730;2024-03-06T10:52:53;31.10;;;15.00;;
56541;SDS011;42438;53.174;6.730;2024-03-06T10:55:25;24.45;;;13.38;;
56541;SDS011;42438;53.174;6.730;2024-03-06T10:57:59;28.75;;;13.95;;
56541;SDS011;42438;53.174;6.730;2024-03-06T11:00:30;31.45;;;14.32;;
56541;SDS011;42438;53.174;6.730;2024-03-06T11:03:07;26.35;;;14.30;;
56541;SDS011;42438;53.174;6.730;2024-03-06T11:05:39;28.42;;;14.10;;
56541;SDS011;42438;53.174;6.730;2024-03-06T11:08:15;25.23;;;13.70;;
56541;SDS011;42438;53.174;6.730;2024-03-06T11:10:46;31.60;;;14.38;;
56541;SDS011;42438;53.174;6.730;2024-03-06T11:15:51;30.20;;;14.02;;
56541;SDS011;42438;53.174;6.730;2024-03-06T11:26:05;31.60;;;16.15;;
56541;SDS011;42438;53.174;6.730;2024-03-06T11:28:36;27.52;;;14.48;;
56541;SDS011;42438;53.174;6.730;2024-03-06T11:31:10;27.98;;;14.00;;
56541;SDS011;42438;53.174;6.730;2024-03-06T11:38:52;29.83;;;12.80;;
56541;SDS011;42438;53.174;6.730;2024-03-06T11:41:26;32.33;;;14.85;;
56541;SDS011;42438;53.174;6.730;2024-03-06T11:44:01;32.30;;;14.90;;
56541;SDS011;42438;53.174;6.730;2024-03-06T11:46:45;27.45;;;14.75;;
56541;SDS011;42438;53.174;6.730;2024-03-06T11:49:19;31.80;;;14.55;;
56541;SDS011;42438;53.174;6.730;2024-03-06T11:51:59;31.50;;;14.73;;
56541;SDS011;42438;53.174;6.730;2024-03-06T11:54:31;34.65;;;19.90;;
56541;SDS011;42438;53.174;6.730;2024-03-06T11:57:03;30.90;;;15.35;;
56541;SDS011;42438;53.174;6.730;2024-03-06T11:59:36;28.13;;;14.90;;
56541;SDS011;42438;53.174;6.730;2024-03-06T12:02:09;30.70;;;15.10;;
56541;SDS011;42438;53.174;6.730;2024-03-06T12:04:41;28.08;;;14.38;;
56541;SDS011;42438;53.174;6.730;2024-03-06T12:07:12;27.20;;;14.55;;
56541;SDS011;42438;53.174;6.730;2024-03-06T12:09:43;31.33;;;14.63;;
56541;SDS011;42438;53.174;6.730;2024-03-06T12:12:14;27.45;;;13.45;;
56541;SDS011;42438;53.174;6.730;2024-03-06T12:14:55;28.42;;;15.05;;
56541;SDS011;42438;53.174;6.730;2024-03-06T12:17:30;24.45;;;14.80;;
56541;SDS011;42438;53.174;6.730;2024-03-06T12:20:01;23.73;;;13.65;;
56541;SDS011;42438;53.174;6.730;2024-03-06T12:22:32;24.92;;;14.68;;
56541;SDS011;42438;53.174;6.730;2024-03-06T12:25:04;22.67;;;12.57;;
56541;SDS011;42438;53.174;6.730;2024-03-06T12:27:35;25.92;;;14.20;;
56541;SDS011;42438;53.174;6.730;2024-03-06T12:30:09;26.08;;;13.52;;
56541;SDS011;42438;53.174;6.730;2024-03-06T12:32:58;23.67;;;13.07;;
56541;SDS011;42438;53.174;6.730;2024-03-06T12:35:30;27.13;;;13.65;;
56541;SDS011;42438;53.174;6.730;2024-03-06T12:38:11;25.85;;;13.88;;
56541;SDS011;42438;53.174;6.730;2024-03-06T12:40:47;24.40;;;13.85;;
56541;SDS011;42438;53.174;6.730;2024-03-06T12:43:18;23.38;;;13.63;;
56541;SDS011;42438;53.174;6.730;2024-03-06T12:45:49;23.45;;;13.43;;
56541;SDS011;42438;53.174;6.730;2024-03-06T12:48:20;25.65;;;14.80;;
56541;SDS011;42438;53.174;6.730;2024-03-06T12:50:52;24.35;;;14.43;;
56541;SDS011;42438;53.174;6.730;2024-03-06T12:53:24;25.23;;;14.05;;
56541;SDS011;42438;53.174;6.730;2024-03-06T12:55:54;25.83;;;13.82;;
56541;SDS011;42438;53.174;6.730;2024-03-06T12:58:25;20.90;;;13.13;;
56541;SDS011;42438;53.174;6.730;2024-03-06T13:00:57;24.63;;;13.43;;
56541;SDS011;42438;53.174;6.730;2024-03-06T13:03:28;23.85;;;13.23;;
56541;SDS011;42438;53.174;6.730;2024-03-06T13:05:59;24.10;;;13.65;;
56541;SDS011;42438;53.174;6.730;2024-03-06T13:08:30;20.50;;;12.40;;
56541;SDS011;42438;53.174;6.730;2024-03-06T13:11:01;22.33;;;13.70;;
56541;SDS011;42438;53.174;6.730;2024-03-06T13:13:33;25.45;;;15.13;;
56541;SDS011;42438;53.174;6.730;2024-03-06T13:16:04;25.00;;;13.90;;
56541;SDS011;42438;53.174;6.730;2024-03-06T13:18:35;29.02;;;15.82;;
56541;SDS011;42438;53.174;6.730;2024-03-06T13:21:06;27.55;;;13.98;;
56541;SDS011;42438;53.174;6.730;2024-03-06T13:23:36;25.48;;;13.48;;
56541;SDS011;42438;53.174;6.730;2024-03-06T13:26:08;24.80;;;13.60;;
56541;SDS011;42438;53.174;6.730;2024-03-06T13:28:39;30.52;;;16.98;;
56541;SDS011;42438;53.174;6.730;2024-03-06T13:31:09;29.30;;;16.17;;
56541;SDS011;42438;53.174;6.730;2024-03-06T13:33:40;30.25;;;16.77;;
56541;SDS011;42438;53.174;6.730;2024-03-06T13:36:11;25.27;;;14.15;;
56541;SDS011;42438;53.174;6.730;2024-03-06T13:38:42;25.20;;;13.73;;
56541;SDS011;42438;53.174;6.730;2024-03-06T13:41:13;21.60;;;12.93;;
56541;SDS011;42438;53.174;6.730;2024-03-06T13:43:44;25.25;;;13.90;;
56541;SDS011;42438;53.174;6.730;2024-03-06T13:46:15;21.60;;;12.95;;
56541;SDS011;42438;53.174;6.730;2024-03-06T13:48:46;25.90;;;15.32;;
56541;SDS011;42438;53.174;6.730;2024-03-06T13:51:16;23.33;;;13.38;;
56541;SDS011;42438;53.174;6.730;2024-03-06T13:53:47;25.25;;;13.80;;
56541;SDS011;42438;53.174;6.730;2024-03-06T13:56:18;26.17;;;14.85;;
56541;SDS011;42438;53.174;6.730;2024-03-06T13:58:48;24.77;;;14.43;;
56541;SDS011;42438;53.174;6.730;2024-03-06T14:01:19;23.65;;;12.93;;
56541;SDS011;42438;53.174;6.730;2024-03-06T14:03:50;27.35;;;13.73;;
56541;SDS011;42438;53.174;6.730;2024-03-06T14:06:20;24.27;;;13.38;;
56541;SDS011;42438;53.174;6.730;2024-03-06T14:08:51;23.95;;;14.15;;
56541;SDS011;42438;53.174;6.730;2024-03-06T14:11:21;26.23;;;14.82;;
56541;SDS011;42438;53.174;6.730;2024-03-06T14:13:52;29.15;;;15.70;;
56541;SDS011;42438;53.174;6.730;2024-03-06T14:16:24;25.92;;;14.45;;
56541;SDS011;42438;53.174;6.730;2024-03-06T14:18:54;26.38;;;14.52;;
56541;SDS011;42438;53.174;6.730;2024-03-06T14:21:25;26.35;;;14.82;;
56541;SDS011;42438;53.174;6.730;2024-03-06T14:23:59;28.63;;;13.55;;
56541;SDS011;42438;53.174;6.730;2024-03-06T14:26:33;26.80;;;14.23;;
56541;SDS011;42438;53.174;6.730;2024-03-06T14:29:05;25.30;;;14.50;;
56541;SDS011;42438;53.174;6.730;2024-03-06T14:31:38;24.55;;;13.85;;
56541;SDS011;42438;53.174;6.730;2024-03-06T14:34:08;26.15;;;16.73;;
56541;SDS011;42438;53.174;6.730;2024-03-06T14:36:40;26.15;;;15.50;;
56541;SDS011;42438;53.174;6.730;2024-03-06T14:39:12;22.75;;;14.07;;
56541;SDS011;42438;53.174;6.730;2024-03-06T14:41:44;25.02;;;13.65;;
56541;SDS011;42438;53.174;6.730;2024-03-06T14:44:17;25.15;;;14.40;;
56541;SDS011;42438;53.174;6.730;2024-03-06T14:46:47;27.35;;;13.65;;
56541;SDS011;42438;53.174;6.730;2024-03-06T14:49:18;24.15;;;13.63;;
56541;SDS011;42438;53.174;6.730;2024-03-06T14:51:49;25.95;;;14.93;;
56541;SDS011;42438;53.174;6.730;2024-03-06T14:54:20;23.60;;;13.93;;
56541;SDS011;42438;53.174;6.730;2024-03-06T14:56:50;28.40;;;16.05;;
56541;SDS011;42438;53.174;6.730;2024-03-06T14:59:22;25.85;;;13.70;;
56541;SDS011;42438;53.174;6.730;2024-03-06T15:01:53;23.02;;;14.35;;
56541;SDS011;42438;53.174;6.730;2024-03-06T15:04:23;28.92;;;14.93;;
56541;SDS011;42438;53.174;6.730;2024-03-06T15:06:54;27.55;;;14.88;;
56541;SDS011;42438;53.174;6.730;2024-03-06T15:09:25;26.25;;;14.95;;